Time;durP1;ratioP1;P1;durP2;ratioP2;P2;SDS_P1;SDS_P2;PMS_P1;PMS_P2;Temp;Humidity;BMP_temperature;BMP_pressure;BME280_temperature;BME280_humidity;BME280_pressure;Samples;Min_cycle;Max_cycle;Signal;HPM_P1;HPM_P2
2021/09/15 00:01:46;;;;;;;9.03;6.00;;;;;;;19.37;55.14;95099.81;5013916;28;20454;-79
2021/09/15 00:04:13;;;;;;;7.47;6.77;;;;;;;19.32;55.87;95098.66;5014117;28;20447;-79
2021/09/15 00:06:40;;;;;;;8.10;7.30;;;;;;;19.25;55.10;95103.06;5013901;28;20855;-79
2021/09/15 00:09:07;;;;;;;6.10;5.60;;;;;;;19.23;55.54;95099.75;5013871;28;20444;-79
2021/09/15 00:11:34;;;;;;;7.30;6.60;;;;;;;19.21;56.17;95101.75;5013798;28;20445;-79
2021/09/15 00:14:03;;;;;;;8.67;5.93;;;;;;;19.17;56.40;95101.28;5013596;28;20449;-80
2021/09/15 00:16:30;;;;;;;6.60;6.00;;;;;;;19.16;56.97;95100.47;5013839;28;20474;-79
2021/09/15 00:18:57;;;;;;;6.87;6.10;;;;;;;19.10;55.79;95109.16;5013877;28;20446;-79
2021/09/15 00:21:24;;;;;;;7.53;6.73;;;;;;;19.01;56.02;95106.72;4995140;28;20478;-79
2021/09/15 00:23:51;;;;;;;7.17;5.60;;;;;;;18.94;56.51;95103.94;5013910;28;20533;-79
2021/09/15 00:26:18;;;;;;;6.90;6.27;;;;;;;19.03;57.17;95115.34;5013424;28;20491;-79
2021/09/15 00:28:45;;;;;;;7.73;6.70;;;;;;;19.03;56.22;95116.16;5013768;28;20437;-79
2021/09/15 00:31:13;;;;;;;7.23;6.57;;;;;;;18.92;56.13;95113.09;5013790;28;20448;-79
2021/09/15 00:33:40;;;;;;;8.03;6.10;;;;;;;18.81;56.63;95106.34;5013204;28;20453;-79
2021/09/15 00:36:07;;;;;;;8.93;5.80;;;;;;;18.77;56.47;95110.34;5011643;28;20432;-79
2021/09/15 00:38:34;;;;;;;7.47;6.77;;;;;;;18.69;56.59;95113.88;5013376;28;20446;-79
2021/09/15 00:41:01;;;;;;;6.93;6.17;;;;;;;18.62;57.02;95112.06;5013665;28;20523;-79
2021/09/15 00:43:28;;;;;;;8.70;6.80;;;;;;;18.56;57.74;95108.28;5013520;28;20822;-79
2021/09/15 00:45:57;;;;;;;7.47;6.63;;;;;;;18.53;57.41;95112.13;5013343;28;20510;-79
2021/09/15 00:48:25;;;;;;;7.90;6.40;;;;;;;18.52;58.01;95112.28;5013605;28;20986;-79
2021/09/15 00:50:53;;;;;;;7.17;6.57;;;;;;;18.44;58.04;95115.78;5011339;28;20445;-79
2021/09/15 00:53:20;;;;;;;6.97;6.30;;;;;;;18.50;57.94;95119.56;4994968;28;20791;-79
2021/09/15 00:55:47;;;;;;;7.10;6.40;;;;;;;18.57;58.36;95113.41;5013531;28;20452;-79
2021/09/15 00:58:14;;;;;;;10.77;6.73;;;;;;;18.56;57.77;95111.75;5013275;28;20452;-79
2021/09/15 01:00:41;;;;;;;7.00;6.33;;;;;;;18.53;57.89;95113.94;5013198;28;20454;-80
2021/09/15 01:03:08;;;;;;;7.87;6.40;;;;;;;18.55;58.81;95111.94;5013549;28;20440;-79
2021/09/15 01:05:37;;;;;;;7.43;6.20;;;;;;;18.55;57.93;95114.59;4994220;28;20848;-79
2021/09/15 01:08:04;;;;;;;6.70;6.00;;;;;;;18.52;58.42;95113.13;4994749;28;20450;-79
2021/09/15 01:10:31;;;;;;;7.47;6.77;;;;;;;18.51;58.61;95103.50;5012583;28;20936;-79
2021/09/15 01:13:00;;;;;;;7.40;6.60;;;;;;;18.53;58.64;95106.78;5012401;28;20972;-79
2021/09/15 01:15:30;;;;;;;7.50;6.80;;;;;;;18.63;58.48;95103.13;5012848;28;20974;-79
2021/09/15 01:17:57;;;;;;;7.10;6.40;;;;;;;18.63;57.29;95109.25;4994165;28;20815;-79
2021/09/15 01:20:24;;;;;;;10.20;5.80;;;;;;;18.56;57.94;95114.41;5012704;28;20446;-79
2021/09/15 01:22:52;;;;;;;6.43;5.83;;;;;;;18.47;58.67;95112.78;4994533;28;20821;-79
2021/09/15 01:25:19;;;;;;;7.10;6.47;;;;;;;18.48;59.05;95110.94;5011705;28;20462;-79
2021/09/15 01:27:46;;;;;;;6.63;5.97;;;;;;;18.43;58.89;95113.31;5012641;28;20944;-79
2021/09/15 01:30:13;;;;;;;7.27;6.57;;;;;;;18.47;59.35;95106.63;5012618;28;20450;-79
2021/09/15 01:32:40;;;;;;;9.03;7.00;;;;;;;18.44;59.19;95110.47;5012474;28;20951;-79
2021/09/15 01:35:07;;;;;;;7.97;7.17;;;;;;;18.45;59.20;95117.44;5012736;28;20454;-79
2021/09/15 01:37:34;;;;;;;8.80;7.40;;;;;;;18.45;59.77;95117.44;4994548;28;20814;-79
2021/09/15 01:40:03;;;;;;;7.43;6.67;;;;;;;18.51;59.38;95124.75;5012614;28;20786;-79
2021/09/15 01:42:30;;;;;;;11.03;6.27;;;;;;;18.52;59.58;95118.44;4994013;28;20959;-79
2021/09/15 01:44:57;;;;;;;7.33;6.57;;;;;;;18.60;59.19;95124.69;5012615;28;20443;-79
2021/09/15 01:47:23;;;;;;;9.43;8.47;;;;;;;18.63;59.08;95114.56;5012295;28;21008;-79
2021/09/15 01:49:51;;;;;;;8.83;6.37;;;;;;;18.66;58.52;95122.19;4994107;28;20921;-79
2021/09/15 01:52:18;;;;;;;10.30;6.90;;;;;;;18.70;58.63;95123.50;5012294;28;20967;-79
2021/09/15 01:54:46;;;;;;;8.07;5.93;;;;;;;18.76;58.40;95127.28;5012494;28;20976;-79
2021/09/15 01:57:15;;;;;;;7.30;6.60;;;;;;;18.78;58.67;95117.31;5012533;28;20468;-79
2021/09/15 01:59:42;;;;;;;9.40;7.10;;;;;;;18.78;58.77;95122.63;5012454;28;20459;-79
2021/09/15 02:02:11;;;;;;;7.80;6.73;;;;;;;18.71;58.51;95127.81;5012250;28;20447;-79
2021/09/15 02:04:38;;;;;;;8.03;6.67;;;;;;;18.72;58.73;95126.00;5012502;28;20457;-79
2021/09/15 02:07:05;;;;;;;7.63;6.87;;;;;;;18.71;58.69;95129.66;5012418;28;20486;-79
2021/09/15 02:09:32;;;;;;;8.77;7.33;;;;;;;18.67;58.83;95129.19;4994205;28;20447;-79
2021/09/15 02:12:00;;;;;;;10.73;7.43;;;;;;;18.57;58.73;95126.72;5012466;28;20449;-79
2021/09/15 02:14:28;;;;;;;7.93;7.20;;;;;;;18.50;58.48;95128.41;5012099;28;20453;-79
2021/09/15 02:16:55;;;;;;;7.80;6.80;;;;;;;18.44;58.75;95129.06;5012543;28;20456;-79
2021/09/15 02:19:22;;;;;;;6.97;6.37;;;;;;;18.41;59.10;95124.09;5012309;28;20458;-79
2021/09/15 02:21:49;;;;;;;6.67;6.10;;;;;;;18.34;59.27;95125.81;5012556;28;20450;-79
2021/09/15 02:24:17;;;;;;;7.07;6.37;;;;;;;18.28;59.38;95129.16;5012382;28;20808;-79
2021/09/15 02:26:44;;;;;;;7.03;6.33;;;;;;;18.29;59.55;95122.84;5012218;28;21105;-79
2021/09/15 02:29:11;;;;;;;7.33;6.47;;;;;;;18.32;59.11;95125.16;4993769;28;20443;-79
2021/09/15 02:31:39;;;;;;;7.33;6.30;;;;;;;18.33;59.54;95121.50;5012104;28;20942;-80
2021/09/15 02:34:06;;;;;;;10.63;6.83;;;;;;;18.32;59.62;95122.50;5011817;28;20454;-79
2021/09/15 02:36:33;;;;;;;7.60;6.90;;;;;;;18.35;59.54;95130.13;5014346;28;20456;-79
2021/09/15 02:39:00;;;;;;;8.50;6.80;;;;;;;18.34;59.25;95128.47;5015763;28;20450;-79
2021/09/15 02:41:27;;;;;;;7.20;6.50;;;;;;;18.34;59.43;95124.97;5015587;28;20452;-79
2021/09/15 02:43:53;;;;;;;8.00;7.20;;;;;;;18.34;59.57;95130.28;5015691;28;20453;-80
2021/09/15 02:46:20;;;;;;;8.10;7.10;;;;;;;18.37;59.96;95130.78;4997387;28;20843;-79
2021/09/15 02:48:49;;;;;;;8.07;7.27;;;;;;;18.32;59.50;95124.31;5015767;28;20452;-79
2021/09/15 02:51:16;;;;;;;12.07;7.33;;;;;;;18.30;59.72;95131.63;5015265;28;20968;-79
2021/09/15 02:53:43;;;;;;;8.83;6.20;;;;;;;18.33;59.98;95132.13;5015597;28;20444;-79
2021/09/15 02:56:09;;;;;;;8.60;7.80;;;;;;;18.32;59.73;95135.78;5015648;28;20490;-79
2021/09/15 02:58:36;;;;;;;9.83;7.47;;;;;;;18.31;60.36;95142.09;4980829;28;20448;-79
2021/09/15 03:01:03;;;;;;;7.40;6.73;;;;;;;18.30;60.61;95136.94;5015595;28;20466;-79
2021/09/15 03:03:30;;;;;;;10.10;7.73;;;;;;;18.23;61.24;95139.47;5015363;28;20452;-79
2021/09/15 03:05:59;;;;;;;8.47;7.57;;;;;;;18.14;60.75;95135.16;5015154;28;20936;-79
2021/09/15 03:08:26;;;;;;;9.00;7.07;;;;;;;18.12;60.61;95142.47;5015120;28;20546;-79
2021/09/15 03:10:52;;;;;;;9.17;8.20;;;;;;;18.05;60.29;95138.84;5015178;28;20951;-79
2021/09/15 03:13:19;;;;;;;12.80;11.50;;;;;;;18.06;60.84;95143.16;4997034;28;20436;-79
2021/09/15 03:15:47;;;;;;;56.83;50.67;;;;;;;18.08;60.63;95143.81;4996768;28;20458;-79
2021/09/15 03:18:14;;;;;;;69.10;52.50;;;;;;;18.06;60.59;95141.31;5014938;28;20458;-79
2021/09/15 03:20:40;;;;;;;43.13;37.67;;;;;;;18.04;60.46;95140.66;5014712;28;20443;-79
2021/09/15 03:23:09;;;;;;;44.20;32.90;;;;;;;18.04;60.59;95142.50;5014902;28;20448;-79
2021/09/15 03:25:36;;;;;;;24.70;18.97;;;;;;;18.05;60.67;95138.84;4980728;28;20573;-79
2021/09/15 03:28:03;;;;;;;14.93;12.53;;;;;;;18.03;60.83;95143.50;5014791;28;20490;-79
2021/09/15 03:30:30;;;;;;;12.80;10.90;;;;;;;18.01;60.78;95145.50;4980543;28;20805;-79
2021/09/15 03:32:57;;;;;;;15.03;10.37;;;;;;;17.93;60.51;95146.34;5014722;28;20502;-79
2021/09/15 03:35:24;;;;;;;9.30;8.50;;;;;;;17.82;60.97;95154.63;5014759;28;20451;-79
2021/09/15 03:37:50;;;;;;;12.03;9.10;;;;;;;17.73;61.12;95158.31;5014889;28;20455;-79
2021/09/15 03:40:19;;;;;;;7.80;7.00;;;;;;;17.58;61.73;95152.78;4996026;28;20445;-83
2021/09/15 03:42:46;;;;;;;9.57;8.57;;;;;;;17.77;68.30;95160.44;4980447;28;20620;-84
2021/09/15 03:45:13;;;;;;;9.20;8.30;;;;;;;17.90;64.66;95162.59;5014308;28;20452;-85
2021/09/15 03:47:40;;;;;;;8.67;7.77;;;;;;;18.09;62.93;95153.44;5013745;28;20495;-83
2021/09/15 03:50:08;;;;;;;8.95;8.15;;;;;;;18.13;61.16;95162.72;5013468;28;20438;-82
2021/09/15 03:52:35;;;;;;;11.37;8.17;;;;;;;17.99;61.20;95164.25;5014332;28;20211;-83
2021/09/15 03:55:02;;;;;;;11.37;8.53;;;;;;;17.90;61.38;95163.41;4996264;28;20542;-83
2021/09/15 03:57:30;;;;;;;10.37;7.70;;;;;;;17.72;61.87;95173.41;5013952;28;20465;-82
2021/09/15 03:59:57;;;;;;;9.70;8.23;;;;;;;17.64;61.96;95165.41;5014345;28;20433;-83
2021/09/15 04:02:24;;;;;;;8.23;7.43;;;;;;;17.52;62.71;95166.72;5014457;28;20449;-80
2021/09/15 04:04:51;;;;;;;9.60;7.90;;;;;;;17.45;63.03;95177.19;5014449;28;20530;-79
2021/09/15 04:07:18;;;;;;;15.83;7.63;;;;;;;17.42;63.65;95182.81;5013466;28;20494;-83
2021/09/15 04:09:45;;;;;;;10.13;7.60;;;;;;;17.33;64.01;95181.13;4995434;28;20614;-81
2021/09/15 04:12:12;;;;;;;9.73;8.63;;;;;;;17.27;64.59;95185.28;5014060;28;20482;-81
2021/09/15 04:14:41;;;;;;;13.97;7.93;;;;;;;17.21;64.43;95179.81;5013721;28;20443;-81
2021/09/15 04:17:08;;;;;;;12.83;7.97;;;;;;;16.98;65.63;95185.72;5014976;28;20459;-80
2021/09/15 04:19:35;;;;;;;9.00;8.10;;;;;;;16.93;66.20;95187.19;5014205;28;20462;-80
2021/09/15 04:22:02;;;;;;;9.17;7.70;;;;;;;16.91;66.63;95187.38;5014046;28;20444;-80
2021/09/15 04:32:43;;;;;;;13.07;8.00;;;;;;;17.17;71.29;95200.53;5013400;28;20508;-79
2021/09/15 04:35:10;;;;;;;10.00;7.30;;;;;;;17.15;68.14;95189.25;5013918;28;20451;-79
2021/09/15 04:37:37;;;;;;;11.00;7.93;;;;;;;17.25;68.42;95202.34;4994987;28;20504;-79
2021/09/15 04:40:05;;;;;;;18.97;8.87;;;;;;;17.29;67.79;95201.84;5013180;28;20453;-81
2021/09/15 04:42:32;;;;;;;10.70;8.03;;;;;;;17.38;67.92;95208.03;5013153;28;20446;-81
2021/09/15 04:45:00;;;;;;;8.87;7.97;;;;;;;17.48;67.93;95207.84;5013571;28;20451;-80
2021/09/15 04:47:27;;;;;;;8.97;8.10;;;;;;;17.56;66.98;95206.03;5013019;28;20494;-80
2021/09/15 04:49:54;;;;;;;14.20;8.57;;;;;;;17.62;69.11;95208.03;5013286;28;20446;-80
2021/09/15 04:52:21;;;;;;;11.97;8.37;;;;;;;17.75;67.50;95212.88;5012911;28;20447;-79
2021/09/15 04:54:48;;;;;;;8.50;7.17;;;;;;;18.04;66.98;95214.19;5014244;28;20546;-79
2021/09/15 04:57:15;;;;;;;9.50;7.60;;;;;;;18.34;65.99;95213.47;5013813;28;20476;-80
2021/09/15 04:59:41;;;;;;;10.60;7.30;;;;;;;18.50;62.94;95210.78;5012694;28;20448;-80
2021/09/15 05:02:10;;;;;;;12.93;8.23;;;;;;;18.87;67.35;95214.66;5014182;28;20439;-80
2021/09/15 05:04:37;;;;;;;14.33;7.40;;;;;;;19.27;62.07;95207.47;5014007;28;20468;-80
2021/09/15 05:07:04;;;;;;;9.10;7.20;;;;;;;19.68;60.10;95200.91;5013679;28;20477;-80
2021/09/15 05:09:31;;;;;;;11.63;7.53;;;;;;;20.15;59.46;95217.66;5013919;28;20438;-80
2021/09/15 05:11:58;;;;;;;8.70;7.90;;;;;;;20.61;57.32;95210.41;5014137;28;20432;-80
2021/09/15 05:14:28;;;;;;;11.07;8.00;;;;;;;21.04;55.84;95219.38;4995693;28;20450;-80
2021/09/15 05:16:58;;;;;;;12.30;8.30;;;;;;;21.37;54.84;95214.44;5014046;28;20813;-80
2021/09/15 05:19:26;;;;;;;14.37;8.00;;;;;;;21.77;54.56;95209.53;5012803;28;20546;-80
2021/09/15 05:21:53;;;;;;;11.63;7.90;;;;;;;22.04;53.06;95216.81;5012512;28;20449;-80
2021/09/15 05:24:20;;;;;;;10.73;8.20;;;;;;;22.37;51.07;95209.03;5012459;28;20814;-80
2021/09/15 05:26:47;;;;;;;20.13;9.77;;;;;;;22.22;50.20;95214.47;5012486;28;20484;-80
2021/09/15 05:29:14;;;;;;;13.50;8.87;;;;;;;21.84;51.51;95221.09;4994379;28;20450;-80
2021/09/15 05:31:41;;;;;;;18.33;9.60;;;;;;;21.67;52.44;95222.38;5012384;28;20949;-80
2021/09/15 05:34:07;;;;;;;19.70;11.73;;;;;;;21.38;54.19;95216.09;5012355;28;20453;-80
2021/09/15 05:36:36;;;;;;;20.47;9.77;;;;;;;21.44;54.91;95219.88;5012453;28;20447;-80
2021/09/15 05:39:03;;;;;;;17.20;10.37;;;;;;;20.83;54.27;95225.47;4994292;28;20450;-80
2021/09/15 05:41:30;;;;;;;21.80;11.27;;;;;;;20.74;56.32;95231.91;5012586;28;20519;-80
2021/09/15 05:43:57;;;;;;;20.97;10.73;;;;;;;20.93;56.80;95236.69;5012364;28;20457;-80
2021/09/15 05:46:24;;;;;;;25.80;10.83;;;;;;;21.37;55.88;95224.31;5012376;28;20447;-80
2021/09/15 05:48:51;;;;;;;15.20;10.07;;;;;;;21.39;53.36;95225.75;5012385;28;20492;-80
2021/09/15 05:51:17;;;;;;;21.13;9.40;;;;;;;21.32;52.86;95219.53;4993927;28;20436;-80
2021/09/15 05:53:46;;;;;;;17.97;10.00;;;;;;;21.23;52.82;95228.66;5012681;28;20451;-80
2021/09/15 05:56:13;;;;;;;19.03;10.97;;;;;;;21.29;52.70;95242.09;4977737;28;20476;-80
2021/09/15 05:58:40;;;;;;;17.60;12.77;;;;;;;21.77;52.06;95230.91;5012228;28;20452;-80
2021/09/15 06:01:07;;;;;;;14.53;11.10;;;;;;;22.12;50.81;95232.69;5012328;28;20802;-80
2021/09/15 06:03:34;;;;;;;13.00;10.03;;;;;;;22.67;49.06;95228.38;5012178;28;20447;-82
2021/09/15 06:06:01;;;;;;;11.40;9.20;;;;;;;22.55;48.05;95224.59;5012232;28;20462;-80
2021/09/15 06:08:27;;;;;;;16.83;9.53;;;;;;;22.43;48.74;95218.13;5009880;28;20484;-80
2021/09/15 06:10:56;;;;;;;11.40;9.70;;;;;;;22.55;48.71;95219.22;5013652;28;20775;-80
2021/09/15 06:13:23;;;;;;;10.90;8.83;;;;;;;22.69;48.76;95230.84;5016701;28;20471;-80
2021/09/15 06:15:50;;;;;;;13.87;9.87;;;;;;;23.02;47.89;95231.06;5016209;28;20929;-80
2021/09/15 06:18:16;;;;;;;14.37;9.43;;;;;;;22.99;48.32;95226.13;5016202;28;20456;-80
2021/09/15 06:20:43;;;;;;;10.77;9.40;;;;;;;23.15;47.21;95225.81;5016019;28;20933;-80
2021/09/15 06:23:11;;;;;;;10.90;9.47;;;;;;;23.30;46.39;95226.47;5015896;28;20478;-80
2021/09/15 06:25:41;;;;;;;12.80;9.30;;;;;;;23.52;45.84;95231.69;5015843;28;20454;-80
2021/09/15 06:28:12;;;;;;;15.20;8.37;;;;;;;23.99;45.79;95223.56;4997789;28;20644;-80
2021/09/15 06:30:40;;;;;;;9.40;8.10;;;;;;;24.39;43.59;95223.63;5015875;28;20464;-80
2021/09/15 06:33:08;;;;;;;14.40;8.67;;;;;;;24.50;44.06;95214.94;5015555;28;20449;-80
2021/09/15 06:35:35;;;;;;;16.07;8.13;;;;;;;24.46;42.98;95221.75;5015566;28;20802;-80
2021/09/15 06:38:02;;;;;;;10.40;8.23;;;;;;;24.44;43.54;95229.19;5015548;28;20448;-80
2021/09/15 06:40:29;;;;;;;8.97;7.50;;;;;;;24.35;43.47;95233.94;5015718;28;20816;-81
2021/09/15 06:42:56;;;;;;;15.80;7.83;;;;;;;24.48;44.28;95238.47;5015713;28;20451;-81
2021/09/15 06:45:24;;;;;;;9.83;7.60;;;;;;;24.41;42.97;95232.28;5015360;28;20453;-81
2021/09/15 06:47:51;;;;;;;9.73;7.30;;;;;;;24.43;42.09;95227.53;5015494;28;20477;-81
2021/09/15 06:50:18;;;;;;;9.90;7.57;;;;;;;24.55;42.10;95228.56;5015329;28;20445;-81
2021/09/15 06:52:45;;;;;;;9.87;7.37;;;;;;;24.61;41.75;95227.75;5015302;28;20454;-81
2021/09/15 06:55:12;;;;;;;15.30;7.93;;;;;;;24.80;42.16;95233.25;5015058;28;20455;-81
2021/09/15 06:57:39;;;;;;;11.90;8.53;;;;;;;24.87;43.12;95231.41;5015810;28;20479;-81
2021/09/15 07:00:09;;;;;;;10.30;8.87;;;;;;;25.03;42.35;95230.97;5015022;28;20505;-81
2021/09/15 07:02:38;;;;;;;9.60;8.30;;;;;;;25.21;41.68;95233.81;5014953;28;20961;-81
2021/09/15 07:05:05;;;;;;;9.53;7.87;;;;;;;25.45;41.95;95234.16;5014998;28;20455;-81
2021/09/15 07:07:33;;;;;;;8.20;7.40;;;;;;;25.57;41.83;95225.19;5014969;28;20489;-81
2021/09/15 07:10:06;;;;;;;15.50;9.13;;;;;;;25.63;40.82;95229.69;5014914;28;20953;-81
2021/09/15 07:12:33;;;;;;;13.70;9.90;;;;;;;25.51;41.34;95233.28;5015108;28;20450;-81
2021/09/15 07:15:00;;;;;;;11.30;8.53;;;;;;;25.44;41.62;95244.03;5014931;28;20448;-81
2021/09/15 07:17:27;;;;;;;10.93;7.30;;;;;;;25.59;42.41;95235.72;5014533;28;20974;-81
2021/09/15 07:19:55;;;;;;;7.90;7.20;;;;;;;25.84;42.30;95228.59;5015048;28;20451;-81
2021/09/15 07:22:22;;;;;;;12.73;7.50;;;;;;;26.19;41.58;95242.41;5013640;28;20954;-81
2021/09/15 07:24:51;;;;;;;10.57;8.30;;;;;;;26.20;40.82;95233.31;5014538;28;20459;-81
2021/09/15 07:27:18;;;;;;;8.33;7.53;;;;;;;26.11;40.28;95233.78;5014757;28;20439;-81
2021/09/15 07:29:45;;;;;;;9.80;8.50;;;;;;;26.41;40.67;95236.69;5014983;28;20443;-81
2021/09/15 07:32:12;;;;;;;8.97;7.37;;;;;;;26.67;40.02;95233.78;5014476;28;20924;-81
2021/09/15 07:34:44;;;;;;;13.70;7.47;;;;;;;26.84;38.73;95225.94;5014394;28;20490;-81
2021/09/15 07:37:13;;;;;;;10.00;7.43;;;;;;;27.02;39.43;95228.69;5014399;28;20991;-82
2021/09/15 07:39:40;;;;;;;8.47;7.50;;;;;;;27.23;37.99;95232.00;4995916;28;20431;-81
2021/09/15 07:42:07;;;;;;;9.50;7.20;;;;;;;27.41;38.04;95221.19;5014440;28;20448;-81
2021/09/15 07:44:34;;;;;;;8.77;7.97;;;;;;;27.48;37.24;95230.03;5014390;28;20833;-81
2021/09/15 07:47:01;;;;;;;8.70;7.90;;;;;;;27.27;37.98;95231.31;4996156;28;20526;-81
2021/09/15 07:49:28;;;;;;;9.13;6.70;;;;;;;27.24;37.45;95228.25;4995897;28;20856;-81
2021/09/15 07:51:55;;;;;;;9.40;6.87;;;;;;;27.30;37.17;95221.94;5014012;28;20439;-82
2021/09/15 07:54:24;;;;;;;10.27;7.90;;;;;;;27.28;38.20;95224.06;4996008;28;20950;-81
2021/09/15 07:56:51;;;;;;;8.77;7.83;;;;;;;27.20;37.39;95221.66;5014130;28;20475;-81
2021/09/15 07:59:18;;;;;;;12.43;7.60;;;;;;;27.13;37.55;95227.09;5014190;28;20447;-81
2021/09/15 08:01:45;;;;;;;9.60;8.37;;;;;;;27.14;37.67;95231.44;5014331;28;20480;-81
2021/09/15 08:04:11;;;;;;;12.33;8.67;;;;;;;27.16;38.44;95230.16;5013813;28;20440;-81
2021/09/15 08:06:38;;;;;;;14.47;7.83;;;;;;;27.29;38.20;95223.00;5013894;28;20451;-81
2021/09/15 08:09:05;;;;;;;14.07;7.90;;;;;;;27.42;38.15;95220.94;5013607;28;20490;-81
2021/09/15 08:11:34;;;;;;;13.70;8.03;;;;;;;27.35;37.18;95216.69;5014081;28;20451;-81
2021/09/15 08:14:01;;;;;;;10.03;9.13;;;;;;;27.38;37.93;95213.56;5013584;28;20448;-82
2021/09/15 08:16:28;;;;;;;10.60;9.50;;;;;;;27.28;37.86;95218.66;5013564;28;20814;-81
2021/09/15 08:18:56;;;;;;;9.30;8.30;;;;;;;27.31;38.40;95221.72;5013661;28;20454;-82
2021/09/15 08:21:23;;;;;;;8.90;7.93;;;;;;;27.24;37.31;95217.47;5013702;28;20448;-81
2021/09/15 08:23:50;;;;;;;14.00;8.80;;;;;;;27.07;36.82;95220.75;5014333;28;20461;-81
2021/09/15 08:26:18;;;;;;;10.00;8.20;;;;;;;27.11;37.72;95223.81;4995219;28;20438;-82
2021/09/15 08:28:46;;;;;;;10.97;8.13;;;;;;;26.86;37.44;95221.97;5011375;28;20471;-81
2021/09/15 08:31:13;;;;;;;9.10;8.23;;;;;;;26.73;37.19;95216.72;5013342;28;20457;-82
2021/09/15 08:33:40;;;;;;;14.47;8.00;;;;;;;26.70;38.42;95217.19;5013423;28;20446;-82
2021/09/15 08:36:07;;;;;;;11.37;7.77;;;;;;;26.85;39.18;95214.94;5013612;28;20816;-81
2021/09/15 08:38:34;;;;;;;8.93;7.67;;;;;;;27.05;38.32;95219.34;5014123;28;20526;-82
2021/09/15 08:41:01;;;;;;;16.93;7.70;;;;;;;27.17;38.50;95215.66;5013559;28;20453;-81
2021/09/15 08:43:29;;;;;;;9.33;7.63;;;;;;;27.37;38.86;95211.91;5013093;28;20454;-82
2021/09/15 08:46:02;;;;;;;14.90;7.77;;;;;;;27.25;37.99;95211.84;5013016;28;20455;-82
2021/09/15 08:48:34;;;;;;;15.23;7.60;;;;;;;27.45;38.63;95211.59;5012908;28;20483;-82
2021/09/15 08:51:02;;;;;;;7.97;7.27;;;;;;;27.39;37.41;95204.41;5013330;28;20828;-82
2021/09/15 08:53:29;;;;;;;13.93;8.43;;;;;;;26.98;38.00;95207.78;5012838;28;20457;-82
2021/09/15 08:55:56;;;;;;;12.53;9.10;;;;;;;27.19;38.14;95198.47;5012878;28;20480;-81
2021/09/15 08:58:23;;;;;;;7.83;7.03;;;;;;;27.31;37.49;95197.47;5012784;28;21058;-82
2021/09/15 09:00:50;;;;;;;11.80;8.10;;;;;;;26.80;38.06;95195.13;5012983;28;20450;-82
2021/09/15 09:03:18;;;;;;;19.83;8.63;;;;;;;26.81;39.36;95194.06;5012807;28;20507;-81
2021/09/15 09:05:45;;;;;;;9.60;8.10;;;;;;;26.89;40.22;95201.03;5013168;28;20438;-82
2021/09/15 09:08:23;;;;;;;12.00;8.30;;;;;;;26.68;39.89;95199.59;5012671;28;20572;-82
2021/09/15 09:10:52;;;;;;;12.73;8.63;;;;;;;26.79;39.52;95193.47;5012925;28;20447;-82
2021/09/15 09:13:19;;;;;;;13.70;8.83;;;;;;;26.86;39.70;95194.22;5012923;28;20452;-82
2021/09/15 09:15:46;;;;;;;11.53;7.60;;;;;;;27.00;38.96;95194.94;5012845;28;20454;-81
2021/09/15 09:18:13;;;;;;;9.50;7.93;;;;;;;26.87;37.43;95190.47;5012772;28;20542;-81
2021/09/15 09:20:42;;;;;;;13.30;7.80;;;;;;;26.94;38.04;95191.25;5012915;28;20444;-81
2021/09/15 09:23:12;;;;;;;12.10;9.10;;;;;;;27.05;37.37;95174.34;5012658;28;20459;-82
2021/09/15 09:25:42;;;;;;;10.37;7.87;;;;;;;26.95;39.08;95171.34;5012862;28;20450;-82
2021/09/15 09:28:33;;;;;;;13.10;7.50;;;;;;;26.73;39.24;95183.59;5012789;28;20494;-82
2021/09/15 09:31:02;;;;;;;14.90;8.33;;;;;;;26.70;39.06;95175.97;4990623;28;20487;-81
2021/09/15 09:33:29;;;;;;;9.67;8.50;;;;;;;26.68;38.39;95169.97;4990830;28;20514;-82
2021/09/15 09:36:01;;;;;;;10.23;8.10;;;;;;;26.88;38.95;95180.53;4990703;28;20453;-81
2021/09/15 09:38:31;;;;;;;12.10;10.50;;;;;;;27.14;40.10;95170.31;4990844;28;20939;-81
2021/09/15 09:41:11;;;;;;;11.27;8.03;;;;;;;27.14;38.20;95162.22;4990536;28;20444;-82
2021/09/15 09:43:40;;;;;;;15.80;8.30;;;;;;;27.27;37.50;95157.72;4990582;28;20526;-82
2021/09/15 09:46:10;;;;;;;11.33;8.40;;;;;;;27.31;36.65;95157.03;4992646;28;20452;-82
2021/09/15 09:48:43;;;;;;;11.43;8.20;;;;;;;27.21;37.60;95159.47;4994824;28;20570;-82
2021/09/15 09:51:32;;;;;;;11.27;9.30;;;;;;;27.43;38.32;95157.09;4994725;28;20447;-82
2021/09/15 09:54:19;;;;;;;9.87;8.10;;;;;;;27.58;37.75;95159.38;4994358;28;20953;-82
2021/09/15 09:56:47;;;;;;;12.80;8.40;;;;;;;27.66;37.34;95159.09;4994314;28;20506;-81
2021/09/15 09:59:15;;;;;;;16.40;9.03;;;;;;;27.73;37.30;95151.72;4994536;28;20951;-82
2021/09/15 10:01:44;;;;;;;12.70;8.03;;;;;;;27.79;35.22;95141.91;4994599;28;20455;-81
2021/09/15 10:04:11;;;;;;;9.37;7.57;;;;;;;27.93;36.41;95141.44;4994275;28;20519;-82
2021/09/15 10:06:40;;;;;;;10.63;7.70;;;;;;;28.07;35.93;95153.69;4996778;28;20448;-82
2021/09/15 10:09:08;;;;;;;14.27;8.40;;;;;;;28.02;34.21;95142.75;5016010;28;20847;-81
2021/09/15 10:11:36;;;;;;;11.00;8.07;;;;;;;28.05;35.49;95145.00;5015988;28;20456;-81
2021/09/15 10:14:04;;;;;;;9.00;7.30;;;;;;;28.12;35.26;95134.09;5015999;28;20803;-81
2021/09/15 10:16:34;;;;;;;8.97;8.10;;;;;;;28.18;34.65;95129.66;5016002;28;20457;-82
2021/09/15 10:19:06;;;;;;;11.83;7.10;;;;;;;28.23;34.92;95121.66;5016309;28;20797;-82
2021/09/15 10:21:36;;;;;;;12.07;7.13;;;;;;;28.24;33.31;95126.84;5015851;28;20491;-82
2021/09/15 10:24:05;;;;;;;7.00;5.93;;;;;;;28.23;34.04;95124.34;5016065;28;20458;-82
2021/09/15 10:26:37;;;;;;;14.03;6.47;;;;;;;28.10;33.42;95121.91;5015973;28;20811;-82
2021/09/15 10:29:15;;;;;;;8.00;6.97;;;;;;;28.07;31.38;95126.72;5015853;28;20487;-82
2021/09/15 10:31:57;;;;;;;13.10;6.90;;;;;;;27.99;31.71;95124.34;5015819;28;20486;-82
2021/09/15 10:34:46;;;;;;;14.23;7.23;;;;;;;27.95;31.13;95125.84;5015976;28;20458;-82
2021/09/15 10:37:52;;;;;;;9.23;7.20;;;;;;;28.00;31.68;95125.16;5015482;28;20449;-82
2021/09/15 10:40:44;;;;;;;8.27;7.27;;;;;;;27.97;30.33;95123.75;5016094;28;20454;-81
2021/09/15 10:43:51;;;;;;;8.20;6.63;;;;;;;27.95;32.35;95117.75;5015684;28;20465;-82
2021/09/15 10:46:26;;;;;;;15.00;7.00;;;;;;;27.88;33.40;95116.22;5015669;28;20447;-82
2021/09/15 10:49:19;;;;;;;7.47;6.43;;;;;;;27.69;32.99;95108.19;5015121;28;21093;-82
2021/09/15 10:51:47;;;;;;;7.17;6.43;;;;;;;27.54;32.91;95104.28;5015511;28;20822;-82
2021/09/15 10:54:42;;;;;;;10.93;6.70;;;;;;;27.64;32.50;95100.00;5015413;28;20451;-82
2021/09/15 10:57:15;;;;;;;10.80;6.47;;;;;;;27.72;32.81;95102.34;5015342;28;20492;-82
2021/09/15 10:59:51;;;;;;;11.37;7.00;;;;;;;27.67;33.84;95096.84;5015480;28;20434;-82
2021/09/15 11:02:27;;;;;;;8.60;7.30;;;;;;;27.61;32.38;95088.81;5015251;28;20457;-82
2021/09/15 11:04:55;;;;;;;9.97;7.60;;;;;;;27.72;32.57;95086.16;5015004;28;20449;-82
2021/09/15 11:07:59;;;;;;;12.20;8.50;;;;;;;27.70;32.33;95082.88;5015145;28;20469;-82
2021/09/15 11:10:45;;;;;;;7.97;6.43;;;;;;;27.74;32.94;95075.97;5014880;28;20489;-82
2021/09/15 11:13:16;;;;;;;8.33;7.30;;;;;;;27.91;32.98;95075.31;5015062;28;20463;-82
2021/09/15 11:15:44;;;;;;;11.80;7.07;;;;;;;28.00;32.07;95073.88;5014863;28;20443;-82
2021/09/15 11:18:22;;;;;;;11.40;6.80;;;;;;;28.01;32.14;95067.44;5015194;28;20451;-82
2021/09/15 11:20:54;;;;;;;12.40;6.60;;;;;;;28.07;32.17;95053.84;5014648;28;20445;-81
2021/09/15 11:23:21;;;;;;;7.93;7.07;;;;;;;28.07;30.70;95053.84;5014798;28;20452;-82
2021/09/15 11:25:50;;;;;;;9.63;6.60;;;;;;;28.17;31.48;95053.25;5014718;28;20510;-82
2021/09/15 11:28:22;;;;;;;8.73;6.50;;;;;;;27.95;30.32;95053.00;5014406;28;20459;-82
2021/09/15 11:30:59;;;;;;;6.73;6.13;;;;;;;27.85;30.92;95051.97;5014534;28;20450;-82
2021/09/15 11:33:27;;;;;;;7.20;6.50;;;;;;;28.01;30.97;95040.47;5014662;28;20444;-82
2021/09/15 11:35:57;;;;;;;11.40;6.60;;;;;;;27.92;31.40;95048.09;5015201;28;20444;-82
2021/09/15 11:38:26;;;;;;;9.60;6.50;;;;;;;28.01;30.74;95040.47;5014352;28;20931;-81
2021/09/15 11:40:53;;;;;;;8.27;7.10;;;;;;;28.04;32.13;95040.81;5014207;28;20451;-81
2021/09/15 11:43:22;;;;;;;7.33;6.63;;;;;;;27.94;31.35;95050.56;5014433;28;20550;-81
2021/09/15 11:45:50;;;;;;;7.50;5.90;;;;;;;27.99;31.38;95039.88;5014194;28;20443;-81